createdAt,value
2022-11-19T08:51:13.352Z,52.47
2022-11-19T08:53:39.774Z,51.85
2022-11-19T08:56:06.374Z,46.67
2022-11-19T08:58:32.775Z,44.53
2022-11-19T09:00:59.439Z,44.28
2022-11-19T09:03:25.990Z,43.17
2022-11-19T09:05:53.349Z,44.25
2022-11-19T09:08:19.704Z,42.38
2022-11-19T09:10:46.032Z,40.17
2022-11-19T09:13:12.392Z,41.15
2022-11-19T09:15:40.017Z,39.90
2022-11-19T09:18:06.531Z,38.72
2022-11-19T09:20:32.898Z,36.38
2022-11-19T09:22:59.266Z,38.67
2022-11-19T09:25:25.675Z,34.55
2022-11-19T09:27:51.994Z,33.22
2022-11-19T09:30:18.332Z,35.28
2022-11-19T09:32:44.584Z,33.78
2022-11-19T09:35:10.852Z,34.20
2022-11-19T09:37:37.085Z,34.63
2022-11-19T09:40:04.679Z,31.20
2022-11-19T09:42:30.980Z,30.73
2022-11-19T09:44:57.281Z,32.35
2022-11-19T09:47:23.529Z,33.13
2022-11-19T09:49:49.747Z,30.63
2022-11-19T09:52:16.133Z,32.53
2022-11-19T09:54:42.359Z,32.50
2022-11-19T09:57:08.588Z,29.85
2022-11-19T09:59:34.910Z,32.13
2022-11-19T10:02:01.143Z,31.75
2022-11-19T10:04:27.537Z,33.60
2022-11-19T10:06:53.769Z,33.83
2022-11-19T10:09:19.979Z,32.15
2022-11-19T10:11:46.190Z,32.60
2022-11-19T10:14:12.561Z,30.48
2022-11-19T10:16:38.962Z,31.77
2022-11-19T10:19:05.244Z,29.67
2022-11-19T10:21:31.605Z,29.10
2022-11-19T10:24:00.750Z,31.98
2022-11-19T10:26:26.986Z,30.60
2022-11-19T10:28:53.188Z,29.02
2022-11-19T10:31:19.406Z,31.48
2022-11-19T10:33:45.660Z,30.60
2022-11-19T10:36:11.953Z,30.20
2022-11-19T10:38:38.296Z,31.13
2022-11-19T10:41:04.570Z,30.95
2022-11-19T10:43:30.806Z,29.50
2022-11-19T10:46:00.083Z,30.45
2022-11-19T10:48:26.372Z,29.00
2022-11-19T10:50:52.617Z,28.17
2022-11-19T10:56:18.957Z,29.45
2022-11-19T10:58:45.245Z,28.35
2022-11-19T11:01:11.844Z,26.67
2022-11-19T11:03:38.167Z,28.95
2022-11-19T11:06:06.310Z,29.42
2022-11-19T11:10:58.796Z,30.10
2022-11-19T11:13:54.429Z,32.47
2022-11-19T11:16:20.638Z,30.88
2022-11-19T11:18:47.051Z,27.42
2022-11-19T11:21:13.323Z,27.30
2022-11-19T11:23:39.932Z,30.02
2022-11-19T11:26:06.249Z,27.13
2022-11-19T11:28:32.511Z,28.75
2022-11-19T11:30:58.757Z,28.30
2022-11-19T11:33:25.051Z,28.65
2022-11-19T11:35:51.326Z,28.42
2022-11-19T11:38:17.743Z,26.35
2022-11-19T11:40:44.087Z,29.40
2022-11-19T11:43:10.367Z,28.15
2022-11-19T11:45:36.599Z,26.15
2022-11-19T11:48:02.973Z,28.13
2022-11-19T11:50:29.228Z,28.52
2022-11-19T11:52:55.469Z,27.60
2022-11-19T11:55:21.719Z,28.23
2022-11-19T11:57:47.978Z,27.15
2022-11-19T12:00:14.198Z,27.73
2022-11-19T12:02:40.652Z,25.70
2022-11-19T12:05:06.904Z,21.98
2022-11-19T12:07:33.194Z,25.75
2022-11-19T12:10:03.523Z,26.10
2022-11-19T12:12:29.800Z,26.58
2022-11-19T12:14:56.024Z,25.30
2022-11-19T12:17:22.280Z,26.75
2022-11-19T12:19:48.511Z,24.50
2022-11-19T12:22:14.851Z,24.92
2022-11-19T12:24:41.079Z,25.17
2022-11-19T12:27:07.330Z,26.65
2022-11-19T12:29:33.568Z,21.83
2022-11-19T12:31:59.799Z,24.33
2022-11-19T12:34:26.028Z,24.33
2022-11-19T12:36:56.691Z,24.85
2022-11-19T12:39:23.083Z,24.25
2022-11-19T12:41:49.356Z,24.48
2022-11-19T12:44:15.596Z,24.17
2022-11-19T12:46:41.959Z,25.80
2022-11-19T12:49:08.557Z,24.20
2022-11-19T12:51:35.889Z,24.20
2022-11-19T12:54:02.252Z,23.20
2022-11-19T12:56:28.494Z,21.75
2022-11-19T12:58:54.966Z,23.38
2022-11-19T13:01:21.291Z,21.55
2022-11-19T13:03:47.637Z,22.42
2022-11-19T13:06:17.822Z,23.10
2022-11-19T13:08:44.392Z,22.15
2022-11-19T13:11:12.413Z,22.27
2022-11-19T13:13:38.772Z,27.73
2022-11-19T13:16:05.063Z,21.73
2022-11-19T13:18:31.324Z,25.27
2022-11-19T13:20:57.585Z,23.73
2022-11-19T13:23:23.833Z,24.02
2022-11-19T13:25:50.118Z,23.58
2022-11-19T13:28:16.414Z,23.40
2022-11-19T13:30:42.693Z,24.25
2022-11-19T13:33:09.080Z,22.75
2022-11-19T13:35:35.365Z,24.30
2022-11-19T13:38:01.650Z,27.80
2022-11-19T13:40:27.917Z,24.60
2022-11-19T13:43:31.645Z,26.75
2022-11-19T13:45:59.000Z,24.98
2022-11-19T13:48:25.370Z,25.30
2022-11-19T13:50:52.662Z,24.60
2022-11-19T13:53:19.061Z,22.50
2022-11-19T13:55:45.287Z,22.88
2022-11-19T13:58:11.568Z,23.77
2022-11-19T14:00:37.903Z,25.20
2022-11-19T14:03:04.278Z,25.33
2022-11-19T14:05:30.554Z,24.73
2022-11-19T14:07:57.043Z,24.70
2022-11-19T14:10:23.630Z,25.55
2022-11-19T14:12:49.917Z,28.67
2022-11-19T14:31:37.733Z,27.65
2022-11-19T14:34:04.414Z,27.63
2022-11-19T14:36:30.942Z,28.42
2022-11-19T14:38:57.318Z,27.23
2022-11-19T15:45:36.649Z,30.15
2022-11-19T16:04:18.639Z,37.67
2022-11-19T16:17:49.575Z,34.25
2022-11-19T16:20:25.012Z,33.20
2022-11-19T16:22:52.034Z,45.58
2022-11-19T16:35:52.619Z,37.42
2022-11-19T16:38:28.508Z,34.65
2022-11-19T16:52:08.562Z,35.83
2022-11-19T16:54:39.273Z,38.25
2022-11-19T16:59:37.642Z,35.75
2022-11-19T17:36:45.100Z,36.33
2022-11-19T17:39:11.623Z,37.97
2022-11-19T17:44:24.953Z,41.45
2022-11-19T17:46:51.370Z,35.45
2022-11-19T17:49:22.476Z,37.33
2022-11-19T17:51:48.949Z,40.03
2022-11-19T17:54:15.350Z,42.83
2022-11-19T17:56:55.290Z,40.05
2022-11-19T17:59:44.019Z,39.40
2022-11-19T18:08:26.916Z,53.65
2022-11-19T18:10:53.348Z,37.15
2022-11-19T18:16:01.302Z,39.08
2022-11-19T18:18:27.742Z,41.90
2022-11-19T18:21:02.181Z,41.40
2022-11-19T18:23:29.411Z,40.47
2022-11-19T18:25:57.407Z,40.45
2022-11-19T18:30:52.535Z,40.67
2022-11-19T18:33:19.996Z,46.65
2022-11-19T18:35:48.870Z,40.20
2022-11-19T18:38:17.934Z,53.70
2022-11-19T18:43:43.626Z,38.90
2022-11-19T18:46:13.038Z,43.95
2022-11-19T18:48:41.010Z,43.65
2022-11-19T18:51:07.461Z,39.13
2022-11-19T18:53:33.880Z,41.65
2022-11-19T18:56:00.735Z,49.60
2022-11-19T18:58:30.161Z,41.10
2022-11-19T19:00:57.910Z,44.63
2022-11-19T19:03:24.350Z,44.10
2022-11-19T19:05:51.096Z,45.10
2022-11-19T19:08:17.374Z,45.45
2022-11-19T19:10:43.667Z,43.20
2022-11-19T19:13:09.956Z,44.92
2022-11-19T19:15:36.268Z,42.10
2022-11-19T19:18:07.754Z,44.00
2022-11-19T19:20:36.880Z,41.60
2022-11-19T19:23:03.626Z,41.55
2022-11-19T19:25:29.934Z,42.83
2022-11-19T19:27:56.231Z,46.33
2022-11-19T19:30:22.496Z,41.65
2022-11-19T19:32:48.877Z,45.03
2022-11-19T19:35:18.205Z,43.95
2022-11-19T19:37:45.070Z,42.85
2022-11-19T19:40:11.415Z,45.90
2022-11-19T19:42:41.230Z,43.70
2022-11-19T19:45:07.937Z,42.65
2022-11-19T19:47:34.236Z,43.40
2022-11-19T19:50:00.480Z,42.42
2022-11-19T19:52:26.747Z,44.97
2022-11-19T19:54:53.137Z,41.83
2022-11-19T19:57:19.403Z,41.85
2022-11-19T19:59:45.690Z,44.95
2022-11-19T20:02:12.091Z,46.15
2022-11-19T20:04:38.360Z,45.22
2022-11-19T20:07:04.651Z,46.03
2022-11-19T20:09:30.912Z,44.60
2022-11-19T20:11:57.195Z,42.22
2022-11-19T20:14:23.478Z,44.83
2022-11-19T20:16:50.513Z,47.47
2022-11-19T20:19:16.885Z,41.13
2022-11-19T20:21:47.206Z,42.33
2022-11-19T20:24:14.142Z,40.72
2022-11-19T20:26:44.010Z,41.58
2022-11-19T20:29:10.451Z,44.83
2022-11-19T20:31:39.872Z,43.35
2022-11-19T20:34:09.361Z,40.45
2022-11-19T20:36:35.653Z,43.47
2022-11-19T20:39:02.127Z,42.22
2022-11-19T20:41:47.275Z,46.40
2022-11-19T20:44:27.496Z,40.90
2022-11-19T20:46:54.915Z,44.70
2022-11-19T20:49:21.774Z,43.50
2022-11-19T20:51:50.615Z,42.45
2022-11-19T20:54:19.999Z,45.25
2022-11-19T20:56:46.573Z,44.15
2022-11-19T20:59:12.933Z,46.53
2022-11-19T21:01:41.793Z,38.80
2022-11-19T21:04:08.657Z,40.85
2022-11-19T21:06:37.895Z,39.60
2022-11-19T21:09:04.302Z,41.38
2022-11-19T21:11:33.097Z,41.90
2022-11-19T21:13:59.689Z,41.55
2022-11-19T21:16:29.046Z,43.85
2022-11-19T21:18:55.515Z,41.33
2022-11-19T21:21:24.394Z,41.30
2022-11-19T21:23:50.791Z,39.70
2022-11-19T21:26:17.273Z,44.90
2022-11-19T21:28:46.177Z,42.15
2022-11-19T21:31:14.947Z,42.22
2022-11-19T21:36:18.863Z,43.95
2022-11-19T21:38:47.645Z,41.33
2022-11-19T21:41:17.004Z,44.42
2022-11-19T21:43:43.383Z,42.15
2022-11-19T21:48:55.848Z,38.92
2022-11-19T21:51:24.889Z,38.42
2022-11-19T21:53:51.911Z,42.53
2022-11-19T21:56:19.145Z,39.45
2022-11-19T21:58:45.708Z,43.38
2022-11-19T22:01:12.309Z,44.22
2022-11-19T22:03:38.726Z,43.00
2022-11-19T22:06:05.127Z,41.97
2022-11-19T22:08:31.508Z,44.63
2022-11-19T22:10:58.181Z,45.70
2022-11-19T22:13:29.390Z,43.78
2022-11-19T22:15:59.520Z,43.00
2022-11-19T22:18:28.264Z,42.33
2022-11-19T22:20:57.545Z,45.95
2022-11-19T22:26:13.173Z,39.95
2022-11-19T22:28:39.588Z,41.80
2022-11-19T22:31:05.921Z,45.08
2022-11-19T22:33:35.171Z,45.35
2022-11-19T22:36:09.267Z,44.42
2022-11-19T22:38:38.192Z,43.05
2022-11-19T22:41:07.525Z,42.97
2022-11-19T22:43:36.700Z,38.17
2022-11-19T22:54:03.328Z,38.78
2022-11-19T22:56:29.838Z,41.58
2022-11-19T22:58:56.183Z,39.42
2022-11-19T23:01:22.653Z,40.58
2022-11-19T23:03:49.149Z,34.90
2022-11-19T23:06:19.029Z,39.53
2022-11-19T23:08:45.610Z,42.17
2022-11-19T23:11:12.053Z,38.03
2022-11-19T23:13:39.162Z,37.05
2022-11-19T23:16:05.933Z,42.92
2022-11-19T23:18:35.726Z,45.65
2022-11-19T23:21:02.240Z,36.33
2022-11-19T23:23:31.019Z,40.83
2022-11-19T23:25:59.801Z,36.58
2022-11-19T23:28:28.701Z,37.17
2022-11-19T23:30:55.024Z,38.60
2022-11-19T23:33:24.249Z,40.97
2022-11-19T23:35:50.599Z,36.42
2022-11-19T23:38:19.775Z,38.58
2022-11-19T23:40:49.048Z,40.58
2022-11-19T23:45:59.141Z,35.58
2022-11-19T23:48:25.938Z,38.88
2022-11-19T23:50:52.562Z,39.78
2022-11-19T23:53:20.833Z,41.00
2022-11-19T23:58:15.140Z,34.95
